createdAt,value
2023-02-27T00:01:09.471Z,96213.34
2023-02-27T00:02:52.579Z,96210.47
2023-02-27T00:04:39.312Z,96204.22
2023-02-27T00:06:14.170Z,96211.03
2023-02-27T00:07:49.749Z,96215.47
2023-02-27T00:09:21.640Z,96209.44
2023-02-27T00:10:53.336Z,96211.06
2023-02-27T00:12:25.000Z,96206.34
2023-02-27T00:13:56.692Z,96211.06
2023-02-27T00:15:32.848Z,96208.41
2023-02-27T00:17:06.966Z,96220.97
2023-02-27T00:18:40.787Z,96223.59
2023-02-27T00:20:14.958Z,96207.03
2023-02-27T00:21:46.853Z,96198.19
2023-02-27T00:23:18.502Z,96199.50
2023-02-27T00:24:53.046Z,96202.66
2023-02-27T00:26:24.752Z,96212.03
2023-02-27T00:27:56.907Z,96204.22
2023-02-27T00:29:40.117Z,96211.03
2023-02-27T00:31:11.962Z,96202.91
2023-02-27T00:32:44.176Z,96207.63
2023-02-27T00:34:15.916Z,96204.47
2023-02-27T00:35:56.253Z,96205.28
2023-02-27T00:37:27.987Z,96210.00
2023-02-27T00:38:59.718Z,96217.31
2023-02-27T00:40:33.598Z,96219.34
2023-02-27T00:42:05.333Z,96209.41
2023-02-27T00:43:36.972Z,96199.47
2023-02-27T00:45:09.328Z,96197.91
2023-02-27T00:46:41.083Z,96210.72
2023-02-27T00:48:12.799Z,96208.38
2023-02-27T00:49:44.421Z,96214.91
2023-02-27T00:51:24.891Z,96207.81
2023-02-27T00:52:59.941Z,96194.50
2023-02-27T00:54:34.276Z,96215.66
2023-02-27T00:56:09.146Z,96203.06
2023-02-27T00:57:41.100Z,96188.44
2023-02-27T00:59:12.734Z,96202.59
2023-02-27T01:00:44.600Z,96201.25
2023-02-27T01:02:16.260Z,96197.59
2023-02-27T01:03:47.947Z,96191.03
2023-02-27T01:05:19.711Z,96190.78
2023-02-27T01:06:53.197Z,96191.56
2023-02-27T01:08:27.604Z,96202.53
2023-02-27T01:09:59.279Z,96199.56
2023-02-27T01:11:30.937Z,96193.41
2023-02-27T01:13:04.596Z,96199.69
2023-02-27T01:14:40.760Z,96199.94
2023-02-27T01:16:21.983Z,96201.50
2023-02-27T01:18:03.990Z,96189.00
2023-02-27T01:19:37.992Z,96192.13
2023-02-27T01:21:12.594Z,96183.78
2023-02-27T01:22:48.637Z,96195.81
2023-02-27T01:24:20.755Z,96184.28
2023-02-27T01:25:52.858Z,96188.50
2023-02-27T01:27:24.893Z,96195.28
2023-02-27T01:29:01.556Z,96185.09
2023-02-27T01:30:36.437Z,96187.72
2023-02-27T01:32:11.038Z,96177.53
2023-02-27T01:33:42.915Z,96191.16
2023-02-27T01:35:22.032Z,96184.03
2023-02-27T01:37:03.592Z,96174.63
2023-02-27T01:38:36.729Z,96175.69
2023-02-27T01:40:10.280Z,96179.41
2023-02-27T01:41:45.330Z,96190.38
2023-02-27T01:43:18.472Z,96174.13
2023-02-27T01:45:27.367Z,96180.97
2023-02-27T01:47:03.774Z,96188.56
2023-02-27T01:48:38.455Z,96192.47
2023-02-27T01:50:11.853Z,96183.63
2023-02-27T01:51:45.361Z,96177.88
2023-02-27T01:53:17.635Z,96177.06
2023-02-27T01:54:50.584Z,96193.03
2023-02-27T01:56:24.808Z,96189.88
2023-02-27T01:57:56.542Z,96183.88
2023-02-27T01:59:28.279Z,96192.28
2023-02-27T02:00:59.982Z,96192.31
2023-02-27T02:02:35.501Z,96192.00
2023-02-27T02:04:10.366Z,96176.47
2023-02-27T02:05:42.038Z,96188.31
2023-02-27T02:07:15.193Z,96181.03
2023-02-27T02:08:48.035Z,96189.88
2023-02-27T02:10:21.151Z,96183.88
2023-02-27T02:11:52.803Z,96182.56
2023-02-27T02:13:24.738Z,96187.84
2023-02-27T02:14:56.351Z,96184.41
2023-02-27T02:16:36.196Z,96191.97
2023-02-27T02:18:19.752Z,96177.34
2023-02-27T02:20:23.960Z,96183.09
2023-02-27T02:22:21.747Z,96184.66
2023-02-27T02:24:07.651Z,96190.13
2023-02-27T02:26:06.860Z,96182.56
2023-02-27T02:27:48.521Z,96172.38
2023-02-27T02:29:59.115Z,96175.50
2023-02-27T02:31:45.244Z,96184.91
2023-02-27T02:35:51.082Z,96164.81
2023-02-27T02:37:49.406Z,96182.56
2023-02-27T02:39:34.948Z,96178.84
2023-02-27T02:41:10.116Z,96176.47
2023-02-27T02:42:45.654Z,96178.91
2023-02-27T02:44:19.855Z,96184.34
2023-02-27T02:45:54.039Z,96181.47
2023-02-27T02:47:30.776Z,96183.81
2023-02-27T02:49:06.196Z,96187.44
2023-02-27T02:50:41.272Z,96184.31
2023-02-27T02:52:15.046Z,96199.22
2023-02-27T02:53:48.935Z,96198.41
2023-02-27T02:55:24.528Z,96208.88
2023-02-27T02:56:58.733Z,96193.97
2023-02-27T02:58:33.322Z,96196.56
2023-02-27T03:00:07.205Z,96198.69
2023-02-27T03:01:40.994Z,96214.66
2023-02-27T03:03:14.462Z,96202.06
2023-02-27T03:04:48.398Z,96205.22
2023-02-27T03:06:21.753Z,96197.13
2023-02-27T03:07:55.670Z,96193.44
2023-02-27T03:09:30.897Z,96188.50
2023-02-27T03:11:17.702Z,96203.09
2023-02-27T03:12:55.510Z,96205.47
2023-02-27T03:14:31.772Z,96208.59
2023-02-27T03:16:12.411Z,96206.81
2023-02-27T03:17:49.623Z,96210.97
2023-02-27T03:19:28.169Z,96212.53
2023-02-27T03:21:07.628Z,96207.59
2023-02-27T03:22:46.931Z,96212.81
2023-02-27T03:24:24.501Z,96199.75
2023-02-27T03:26:03.341Z,96206.03
2023-02-27T03:27:39.777Z,96201.63
2023-02-27T03:29:12.438Z,96209.97
2023-02-27T03:30:49.829Z,96207.59
2023-02-27T03:32:27.802Z,96208.91
2023-02-27T03:34:04.867Z,96212.88
2023-02-27T03:35:49.628Z,96214.66
2023-02-27T03:37:25.733Z,96218.38
2023-02-27T03:39:03.036Z,96217.03
2023-02-27T03:40:52.212Z,96223.31
2023-02-27T03:42:30.060Z,96217.53
2023-02-27T03:44:05.177Z,96216.75
2023-02-27T03:45:38.375Z,96216.81
2023-02-27T03:47:09.993Z,96230.91
2023-02-27T03:48:44.795Z,96227.78
2023-02-27T03:50:16.682Z,96221.22
2023-02-27T03:51:48.489Z,96211.88
2023-02-27T03:53:23.181Z,96212.16
2023-02-27T03:54:57.231Z,96220.72
2023-02-27T03:56:30.977Z,96215.75
2023-02-27T03:58:02.594Z,96217.06
2023-02-27T03:59:35.607Z,96217.06
2023-02-27T04:01:07.273Z,96218.91
2023-02-27T04:02:38.901Z,96230.19
2023-02-27T04:04:12.006Z,96224.41
2023-02-27T04:05:43.659Z,96230.63
2023-02-27T04:07:24.973Z,96229.38
2023-02-27T04:09:00.443Z,96228.31
2023-02-27T04:10:45.632Z,96237.25
2023-02-27T04:12:29.690Z,96238.81
2023-02-27T04:14:16.157Z,96227.09
2023-02-27T04:16:00.751Z,96229.44
2023-02-27T04:17:32.792Z,96239.66
2023-02-27T04:19:11.777Z,96234.66
2023-02-27T04:20:44.091Z,96238.34
2023-02-27T04:22:22.372Z,96232.59
2023-02-27T04:23:56.559Z,96246.72
2023-02-27T04:25:35.645Z,96227.38
2023-02-27T04:27:12.820Z,96242.78
2023-02-27T04:28:45.257Z,96242.00
2023-02-27T04:30:22.771Z,96236.19
2023-02-27T04:31:58.867Z,96247.72
2023-02-27T04:33:36.976Z,96245.63
2023-02-27T04:35:10.576Z,96246.69
2023-02-27T04:36:43.051Z,96243.59
2023-02-27T04:38:17.320Z,96238.59
2023-02-27T04:39:53.481Z,96242.03
2023-02-27T04:41:26.713Z,96246.16
2023-02-27T04:42:58.492Z,96257.63
2023-02-27T04:44:30.466Z,96243.50
2023-02-27T04:46:02.678Z,96230.25
2023-02-27T04:47:38.060Z,96244.09
2023-02-27T04:49:12.426Z,96250.59
2023-02-27T04:50:45.602Z,96251.34
2023-02-27T04:52:18.876Z,96257.66
2023-02-27T04:53:52.739Z,96258.50
2023-02-27T04:55:26.591Z,96254.56
2023-02-27T04:57:00.302Z,96246.47
2023-02-27T04:58:33.796Z,96249.88
2023-02-27T05:00:07.940Z,96245.16
2023-02-27T05:01:40.930Z,96250.16
2023-02-27T05:03:21.546Z,96251.19
2023-02-27T05:04:55.642Z,96258.47
2023-02-27T05:06:28.597Z,96257.16
2023-02-27T05:08:02.108Z,96246.16
2023-02-27T05:09:36.824Z,96254.53
2023-02-27T05:11:10.695Z,96246.16
2023-02-27T05:12:44.612Z,96255.28
2023-02-27T05:14:17.587Z,96248.78
2023-02-27T05:15:50.697Z,96252.78
2023-02-27T05:17:23.277Z,96251.69
2023-02-27T05:18:56.254Z,96249.63
2023-02-27T05:20:43.069Z,96245.94
2023-02-27T05:22:22.271Z,96249.88
2023-02-27T05:23:58.728Z,96252.50
2023-02-27T05:25:33.088Z,96252.78
2023-02-27T05:27:18.572Z,96261.88
2023-02-27T05:28:53.292Z,96255.09
2023-02-27T05:30:26.926Z,96256.16
2023-02-27T05:32:03.993Z,96249.34
2023-02-27T05:33:36.747Z,96267.13
2023-02-27T05:35:13.409Z,96245.63
2023-02-27T05:36:46.692Z,96262.38
2023-02-27T05:38:20.279Z,96249.06
2023-02-27T05:39:52.250Z,96258.78
2023-02-27T05:41:26.019Z,96251.94
2023-02-27T05:43:00.091Z,96266.09
2023-02-27T05:44:33.361Z,96250.09
2023-02-27T05:46:06.495Z,96256.09
2023-02-27T05:47:39.879Z,96256.09
2023-02-27T05:49:13.528Z,96251.19
2023-02-27T05:50:47.554Z,96261.13
2023-02-27T05:52:20.196Z,96256.09
2023-02-27T05:53:54.029Z,96253.25
2023-02-27T05:55:27.727Z,96244.63
2023-02-27T05:56:59.376Z,96249.06
2023-02-27T05:58:32.964Z,96249.03
2023-02-27T06:00:08.611Z,96263.69
2023-02-27T06:01:40.300Z,96259.75
2023-02-27T06:03:12.054Z,96262.63
2023-02-27T06:04:43.729Z,96250.56
2023-02-27T06:06:17.897Z,96270.72
2023-02-27T06:07:49.599Z,96264.97
2023-02-27T06:09:21.440Z,96258.97
2023-02-27T06:10:55.181Z,96260.78
2023-02-27T06:12:27.078Z,96263.41
2023-02-27T06:13:58.735Z,96260.25
2023-02-27T06:15:30.437Z,96263.38
2023-02-27T06:17:02.107Z,96264.41
2023-02-27T06:18:33.850Z,96258.41
2023-02-27T06:20:06.927Z,96259.47
2023-02-27T06:21:42.710Z,96263.34
2023-02-27T06:23:14.445Z,96267.28
2023-02-27T06:24:46.125Z,96264.94
2023-02-27T06:26:17.997Z,96263.38
2023-02-27T06:27:49.659Z,96268.06
2023-02-27T06:29:21.716Z,96270.13
2023-02-27T06:30:53.929Z,96268.06
2023-02-27T06:32:25.883Z,96269.09
2023-02-27T06:33:57.913Z,96275.38
2023-02-27T06:35:29.691Z,96271.44
2023-02-27T06:37:04.340Z,96273.00
2023-02-27T06:38:36.856Z,96267.22
2023-02-27T06:40:12.287Z,96274.31
2023-02-27T06:41:44.275Z,96280.28
2023-02-27T06:43:15.950Z,96278.47
2023-02-27T06:44:47.578Z,96282.38
2023-02-27T06:46:19.254Z,96287.09
2023-02-27T06:47:51.075Z,96278.19
2023-02-27T06:49:22.912Z,96283.16
2023-02-27T06:50:54.898Z,96282.66
2023-02-27T06:52:27.862Z,96285.78
2023-02-27T06:53:59.544Z,96285.69
2023-02-27T06:55:31.220Z,96279.16
2023-02-27T06:57:02.982Z,96274.97
2023-02-27T06:58:34.653Z,96276.00
2023-02-27T07:00:07.707Z,96285.94
2023-02-27T07:01:39.399Z,96291.91
2023-02-27T07:03:14.521Z,96293.19
2023-02-27T07:04:46.816Z,96289.28
2023-02-27T07:06:18.672Z,96286.94
2023-02-27T07:07:51.910Z,96297.69
2023-02-27T07:09:26.022Z,96301.31
2023-02-27T07:10:58.003Z,96296.09
2023-02-27T07:12:29.955Z,96301.03
2023-02-27T07:14:01.830Z,96300.78
2023-02-27T07:15:36.456Z,96300.00
2023-02-27T07:17:08.349Z,96304.19
2023-02-27T07:18:40.305Z,96303.94
2023-02-27T07:20:12.389Z,96313.34
2023-02-27T07:21:44.225Z,96309.97
2023-02-27T07:23:17.810Z,96313.88
2023-02-27T07:24:50.034Z,96309.13
2023-02-27T07:26:21.933Z,96316.69
2023-02-27T07:27:53.720Z,96312.78
2023-02-27T07:29:25.693Z,96323.44
2023-02-27T07:31:00.187Z,96320.03
2023-02-27T07:32:31.998Z,96318.19
2023-02-27T07:34:06.885Z,96321.09
2023-02-27T07:35:38.937Z,96327.34
2023-02-27T07:37:10.958Z,96335.94
2023-02-27T07:38:44.145Z,96336.72
2023-02-27T07:40:16.666Z,96326.53
2023-02-27T07:41:48.752Z,96328.84
2023-02-27T07:47:01.255Z,96325.97
2023-02-27T07:56:07.356Z,96331.94
2023-02-27T07:57:53.015Z,96332.72
2023-02-27T07:59:48.415Z,96336.59
2023-02-27T08:07:34.379Z,96354.94
2023-02-27T08:09:27.807Z,96346.56
2023-02-27T08:11:03.722Z,96346.47
2023-02-27T08:12:45.772Z,96355.41
2023-02-27T08:14:19.123Z,96354.66
2023-02-27T08:15:50.919Z,96348.03
2023-02-27T08:17:22.747Z,96357.19
2023-02-27T08:18:54.485Z,96361.19
2023-02-27T08:20:26.340Z,96358.56
2023-02-27T08:21:59.880Z,96358.28
2023-02-27T08:23:32.005Z,96361.19
2023-02-27T08:25:05.791Z,96366.38
2023-02-27T08:26:37.725Z,96355.91
2023-02-27T08:28:09.475Z,96374.19
2023-02-27T08:29:43.429Z,96386.75
2023-02-27T08:31:15.375Z,96365.00
2023-02-27T08:32:48.451Z,96355.28
2023-02-27T08:34:20.294Z,96367.34
2023-02-27T08:35:54.460Z,96361.53
2023-02-27T08:37:26.243Z,96363.09
2023-02-27T08:38:58.052Z,96360.16
2023-02-27T08:40:29.854Z,96368.31
2023-02-27T08:42:01.673Z,96372.75
2023-02-27T08:43:33.574Z,96356.84
2023-02-27T08:45:08.790Z,96356.84
2023-02-27T08:46:40.546Z,96363.06
2023-02-27T08:48:14.236Z,96374.56
2023-02-27T08:49:45.953Z,96371.94
2023-02-27T08:51:17.776Z,96381.41
2023-02-27T08:52:49.539Z,96381.41
2023-02-27T08:54:21.526Z,96382.47
2023-02-27T08:55:53.529Z,96371.69
2023-02-27T08:57:25.329Z,96371.97
2023-02-27T08:58:57.212Z,96383.25
2023-02-27T09:00:32.677Z,96380.13
2023-02-27T09:02:04.810Z,96385.59
2023-02-27T09:03:37.384Z,96386.88
2023-02-27T09:05:09.653Z,96388.16
2023-02-27T09:06:41.427Z,96384.56
2023-02-27T09:08:13.160Z,96387.09
2023-02-27T09:09:45.200Z,96392.06
2023-02-27T09:11:17.276Z,96381.53
2023-02-27T09:12:49.403Z,96396.31
2023-02-27T09:14:21.287Z,96390.47
2023-02-27T09:15:54.652Z,96394.19
2023-02-27T09:17:26.585Z,96387.84
2023-02-27T09:19:00.203Z,96411.94
2023-02-27T09:20:32.121Z,96392.81
2023-02-27T09:22:07.312Z,96415.84
2023-02-27T09:23:39.432Z,96397.44
2023-02-27T09:25:11.184Z,96406.31
2023-02-27T09:26:46.339Z,96416.63
2023-02-27T09:28:18.673Z,96410.03
2023-02-27T09:29:55.475Z,96414.16
2023-02-27T09:31:32.901Z,96402.94
2023-02-27T09:33:05.156Z,96407.91
2023-02-27T09:34:37.025Z,96431.53
2023-02-27T09:36:09.038Z,96414.94
2023-02-27T09:37:40.900Z,96430.97
2023-02-27T09:39:12.767Z,96420.38
2023-02-27T09:40:44.590Z,96420.16
2023-02-27T09:42:19.311Z,96424.78
2023-02-27T09:43:51.067Z,96422.31
2023-02-27T09:45:24.661Z,96421.25
2023-02-27T09:46:57.949Z,96418.69
2023-02-27T09:48:30.598Z,96427.63
2023-02-27T09:50:03.317Z,96442.31
2023-02-27T09:51:35.137Z,96429.75
2023-02-27T09:53:09.640Z,96441.19
2023-02-27T09:54:43.683Z,96427.69
2023-02-27T09:56:20.164Z,96447.53
2023-02-27T09:57:56.330Z,96445.19
2023-02-27T09:59:31.791Z,96443.88
2023-02-27T10:01:05.787Z,96445.88
2023-02-27T10:02:45.006Z,96445.97
2023-02-27T10:04:30.491Z,96440.41
2023-02-27T10:06:20.945Z,96460.28
2023-02-27T10:07:56.121Z,96451.22
2023-02-27T10:09:35.799Z,96469.53
2023-02-27T10:11:08.364Z,96459.28
2023-02-27T10:13:08.957Z,96456.47
2023-02-27T10:14:42.951Z,96468.25
2023-02-27T10:16:20.876Z,96465.81
2023-02-27T10:17:56.127Z,96474.91
2023-02-27T10:19:30.640Z,96464.47
2023-02-27T10:21:07.042Z,96478.94
2023-02-27T10:22:41.406Z,96471.28
2023-02-27T10:24:17.650Z,96476.53
2023-02-27T10:25:50.334Z,96466.53
2023-02-27T10:27:22.275Z,96486.19
2023-02-27T10:28:54.063Z,96483.66
2023-02-27T10:30:34.939Z,96471.50
2023-02-27T10:32:08.054Z,96474.69
2023-02-27T10:33:42.175Z,96491.25
2023-02-27T10:35:21.325Z,96483.63
2023-02-27T10:36:53.447Z,96490.88
2023-02-27T10:38:29.448Z,96481.91
2023-02-27T10:40:04.059Z,96487.47
2023-02-27T10:41:36.142Z,96487.91
2023-02-27T10:43:07.952Z,96481.22
2023-02-27T10:44:39.729Z,96491.88
2023-02-27T10:46:13.820Z,96502.41
2023-02-27T10:47:45.993Z,96495.63
2023-02-27T10:49:19.994Z,96487.97
2023-02-27T10:50:52.336Z,96496.91
2023-02-27T10:52:24.284Z,96487.44
2023-02-27T10:54:14.320Z,96500.44
2023-02-27T10:55:48.277Z,96509.03
2023-02-27T10:57:23.706Z,96497.69
2023-02-27T10:59:05.715Z,96503.38
2023-02-27T11:00:44.220Z,96497.91
2023-02-27T11:02:21.739Z,96496.09
2023-02-27T11:03:55.519Z,96498.19
2023-02-27T11:05:29.832Z,96500.19
2023-02-27T11:07:06.683Z,96500.81
2023-02-27T11:08:38.729Z,96493.72
2023-02-27T11:10:17.313Z,96502.88
2023-02-27T11:11:52.299Z,96514.78
2023-02-27T11:13:28.028Z,96505.06
2023-02-27T11:15:03.699Z,96514.00
2023-02-27T11:16:45.470Z,96501.16
2023-02-27T11:18:21.786Z,96506.69
2023-02-27T11:19:55.598Z,96504.50
2023-02-27T11:21:32.372Z,96503.97
2023-02-27T11:23:05.067Z,96495.84
2023-02-27T11:24:37.076Z,96505.16
2023-02-27T11:26:19.822Z,96500.19
2023-02-27T11:27:54.465Z,96506.34
2023-02-27T11:29:30.038Z,96508.69
2023-02-27T11:31:03.827Z,96498.81
2023-02-27T11:32:37.230Z,96500.66
2023-02-27T11:34:18.350Z,96512.81
2023-02-27T11:35:50.959Z,96501.31
2023-02-27T11:37:31.432Z,96500.69
2023-02-27T11:39:03.219Z,96509.59
2023-02-27T11:40:37.031Z,96502.25
2023-02-27T11:42:17.286Z,96509.25
2023-02-27T11:43:50.390Z,96516.44
2023-02-27T11:46:04.387Z,96510.69
2023-02-27T11:47:27.601Z,96514.78
2023-02-27T11:49:03.189Z,96506.34
2023-02-27T11:50:41.009Z,96513.22
2023-02-27T11:52:13.417Z,96529.34
2023-02-27T11:53:58.048Z,96517.34
2023-02-27T11:55:32.627Z,96516.63
2023-02-27T11:57:09.014Z,96513.66
2023-02-27T11:58:53.157Z,96516.84
2023-02-27T12:00:29.619Z,96513.50
2023-02-27T12:02:03.520Z,96515.50
2023-02-27T12:03:43.011Z,96518.84
2023-02-27T12:05:26.529Z,96523.16
2023-02-27T12:07:01.556Z,96522.59
2023-02-27T12:08:36.321Z,96524.44
2023-02-27T12:10:20.976Z,96518.94
2023-02-27T12:11:53.339Z,96526.44
2023-02-27T12:13:26.104Z,96523.03
2023-02-27T12:15:02.934Z,96521.66
2023-02-27T12:16:37.636Z,96514.22
2023-02-27T12:18:15.412Z,96523.81
2023-02-27T12:20:09.812Z,96522.00
2023-02-27T12:21:42.584Z,96526.06
2023-02-27T12:23:17.404Z,96527.47
2023-02-27T12:24:51.442Z,96517.97
2023-02-27T12:26:27.024Z,96508.69
2023-02-27T12:29:51.022Z,96524.72
2023-02-27T12:31:45.363Z,96517.22
2023-02-27T12:33:20.117Z,96521.28
2023-02-27T12:34:52.977Z,96521.41
2023-02-27T12:36:24.841Z,96520.88
2023-02-27T12:37:56.772Z,96519.63
2023-02-27T12:39:31.715Z,96519.19
2023-02-27T12:41:12.793Z,96525.84
2023-02-27T12:43:02.297Z,96522.88
2023-02-27T12:44:46.334Z,96522.09
2023-02-27T12:46:36.963Z,96515.56
2023-02-27T12:48:20.750Z,96518.81
2023-02-27T12:49:56.508Z,96519.88
2023-02-27T12:51:43.432Z,96525.69
2023-02-27T12:53:25.596Z,96528.00
2023-02-27T12:55:01.652Z,96523.22
2023-02-27T12:56:42.339Z,96528.13
2023-02-27T12:58:52.852Z,96527.84
2023-02-27T13:00:26.477Z,96527.41
2023-02-27T13:02:09.752Z,96525.84
2023-02-27T13:03:48.899Z,96528.84
2023-02-27T13:05:41.332Z,96524.03
2023-02-27T13:07:25.110Z,96527.63
2023-02-27T13:09:05.803Z,96527.06
2023-02-27T13:10:42.323Z,96532.16
2023-02-27T13:12:32.505Z,96532.69
2023-02-27T13:14:07.365Z,96530.69
2023-02-27T13:15:46.973Z,96517.69
2023-02-27T13:17:26.328Z,96527.06
2023-02-27T13:19:01.406Z,96520.03
2023-02-27T13:20:36.226Z,96522.72
2023-02-27T13:22:12.729Z,96516.69
2023-02-27T13:23:50.139Z,96524.22
2023-02-27T13:25:26.553Z,96522.75
2023-02-27T13:27:08.057Z,96529.06
2023-02-27T13:28:53.671Z,96521.97
2023-02-27T13:30:38.145Z,96525.22
2023-02-27T13:32:21.634Z,96520.03
2023-02-27T13:35:16.633Z,96525.16
2023-02-27T13:36:54.344Z,96527.41
2023-02-27T13:38:34.630Z,96527.19
2023-02-27T13:40:35.873Z,96526.34
2023-02-27T13:42:53.142Z,96527.50
2023-02-27T13:44:41.039Z,96521.16
2023-02-27T13:46:30.992Z,96521.66
2023-02-27T13:48:25.031Z,96522.88
2023-02-27T13:50:03.873Z,96533.03
2023-02-27T13:51:49.660Z,96531.81
2023-02-27T13:53:32.838Z,96530.34
2023-02-27T13:55:23.717Z,96541.13
2023-02-27T13:57:36.377Z,96534.50
2023-02-27T13:59:20.258Z,96529.91
2023-02-27T14:01:27.967Z,96532.53
2023-02-27T14:03:10.440Z,96533.03
2023-02-27T14:04:48.382Z,96534.56
2023-02-27T14:06:20.675Z,96534.66
2023-02-27T14:08:00.999Z,96530.47
2023-02-27T14:09:35.057Z,96527.22
2023-02-27T14:11:16.418Z,96535.16
2023-02-27T14:12:48.239Z,96537.06
2023-02-27T14:14:46.304Z,96536.91
2023-02-27T14:16:54.919Z,96531.66
2023-02-27T14:18:51.810Z,96539.78
2023-02-27T14:20:50.553Z,96536.72
2023-02-27T14:22:37.300Z,96539.53
2023-02-27T14:24:11.518Z,96535.72
2023-02-27T14:25:45.181Z,96539.34
2023-02-27T14:27:19.014Z,96541.19
2023-02-27T14:28:55.555Z,96555.16
2023-02-27T14:30:33.067Z,96550.34
2023-02-27T14:32:06.964Z,96546.63
2023-02-27T14:33:41.423Z,96537.50
2023-02-27T14:35:16.559Z,96549.69
2023-02-27T14:36:50.140Z,96546.00
2023-02-27T14:38:21.925Z,96539.63
2023-02-27T14:39:54.415Z,96542.00
2023-02-27T14:41:38.207Z,96540.44
2023-02-27T14:43:15.109Z,96548.34
2023-02-27T14:44:47.283Z,96541.91
2023-02-27T14:46:23.636Z,96535.09
2023-02-27T14:47:55.318Z,96534.03
2023-02-27T14:49:28.738Z,96536.53
2023-02-27T14:51:01.777Z,96541.78
2023-02-27T14:52:40.851Z,96539.16
2023-02-27T14:54:13.960Z,96544.63
2023-02-27T14:55:45.721Z,96541.38
2023-02-27T14:57:18.276Z,96535.88
2023-02-27T14:59:03.341Z,96545.97
2023-02-27T15:00:37.268Z,96549.16
2023-02-27T15:02:15.983Z,96547.38
2023-02-27T15:03:48.548Z,96553.53
2023-02-27T15:05:21.410Z,96544.81
2023-02-27T15:06:54.833Z,96550.34
2023-02-27T15:08:28.026Z,96553.75
2023-02-27T15:10:01.624Z,96549.78
2023-02-27T15:11:34.365Z,96554.41
2023-02-27T15:13:06.238Z,96548.94
2023-02-27T15:14:39.402Z,96549.28
2023-02-27T15:16:26.399Z,96564.66
2023-02-27T15:18:03.699Z,96559.00
2023-02-27T15:19:39.646Z,96555.84
2023-02-27T15:21:31.866Z,96559.97
2023-02-27T15:23:21.339Z,96555.50
2023-02-27T15:24:57.610Z,96563.50
2023-02-27T15:26:30.994Z,96557.94
2023-02-27T15:28:03.612Z,96552.78
2023-02-27T15:29:36.458Z,96553.03
2023-02-27T15:31:09.570Z,96556.94
2023-02-27T15:32:41.940Z,96564.53
2023-02-27T15:34:14.101Z,96565.53
2023-02-27T15:35:45.995Z,96559.81
2023-02-27T15:37:19.890Z,96572.94
2023-02-27T15:39:05.974Z,96574.72
2023-02-27T15:40:37.895Z,96571.59
2023-02-27T15:42:09.841Z,96571.28
2023-02-27T15:43:41.680Z,96580.75
2023-02-27T15:45:17.369Z,96570.09
2023-02-27T15:46:49.119Z,96567.44
2023-02-27T15:48:20.978Z,96572.41
2023-02-27T15:49:55.126Z,96574.00
2023-02-27T15:51:27.099Z,96572.94
2023-02-27T15:53:00.648Z,96587.22
2023-02-27T15:54:34.437Z,96585.97
2023-02-27T15:56:09.529Z,96584.56
2023-02-27T15:57:47.476Z,96584.81
2023-02-27T15:59:25.399Z,96593.56
2023-02-27T16:01:00.786Z,96595.03
2023-02-27T16:02:36.951Z,96595.25
2023-02-27T16:04:20.555Z,96594.75
2023-02-27T16:05:53.229Z,96593.06
2023-02-27T16:07:25.496Z,96600.97
2023-02-27T16:08:58.544Z,96601.00
2023-02-27T16:10:36.752Z,96592.66
2023-02-27T16:12:30.714Z,96597.03
2023-02-27T16:14:02.948Z,96605.22
2023-02-27T16:15:36.371Z,96609.38
2023-02-27T16:17:26.120Z,96606.78
2023-02-27T16:18:58.415Z,96620.41
2023-02-27T16:20:41.010Z,96609.44
2023-02-27T16:22:14.339Z,96618.59
2023-02-27T16:23:46.224Z,96620.16
2023-02-27T16:25:19.061Z,96617.28
2023-02-27T16:26:52.980Z,96610.97
2023-02-27T16:28:26.971Z,96624.66
2023-02-27T16:30:03.178Z,96624.16
2023-02-27T16:31:36.188Z,96627.81
2023-02-27T16:33:21.138Z,96626.47
2023-02-27T16:35:00.507Z,96626.47
2023-02-27T16:38:18.051Z,96629.94
2023-02-27T16:39:56.194Z,96623.91
2023-02-27T16:41:30.486Z,96633.84
2023-02-27T16:43:10.997Z,96633.09
2023-02-27T16:44:45.307Z,96636.22
2023-02-27T16:46:21.180Z,96640.41
2023-02-27T16:48:04.389Z,96642.78
2023-02-27T16:49:41.329Z,96643.50
2023-02-27T16:51:16.826Z,96642.28
2023-02-27T16:53:08.146Z,96637.53
2023-02-27T16:54:39.969Z,96640.38
2023-02-27T16:56:23.719Z,96643.81
2023-02-27T16:58:00.980Z,96648.28
2023-02-27T16:59:43.021Z,96647.00
2023-02-27T17:01:19.822Z,96664.03
2023-02-27T17:02:52.958Z,96660.13
2023-02-27T17:04:26.241Z,96658.25
2023-02-27T17:06:03.129Z,96659.00
2023-02-27T17:07:35.218Z,96648.81
2023-02-27T17:09:09.109Z,96654.31
2023-02-27T17:10:44.019Z,96648.81
2023-02-27T17:12:39.321Z,96657.50
2023-02-27T17:14:11.283Z,96665.09
2023-02-27T17:16:38.839Z,96667.69
2023-02-27T17:18:17.410Z,96659.28
2023-02-27T17:19:51.568Z,96669.28
2023-02-27T17:21:23.635Z,96659.28
2023-02-27T17:22:57.660Z,96661.41
2023-02-27T17:24:31.610Z,96669.53
2023-02-27T17:26:04.485Z,96676.09
2023-02-27T17:27:42.449Z,96666.66
2023-02-27T17:29:20.880Z,96665.34
2023-02-27T17:32:52.363Z,96684.22
2023-02-27T17:34:24.092Z,96678.19
2023-02-27T17:36:02.040Z,96685.00
2023-02-27T17:37:34.361Z,96701.22
2023-02-27T17:39:06.371Z,96697.06
2023-02-27T17:40:41.139Z,96690.25
2023-02-27T17:42:16.561Z,96698.63
2023-02-27T17:43:50.229Z,96699.44
2023-02-27T17:45:24.715Z,96702.31
2023-02-27T17:47:00.117Z,96704.97
2023-02-27T17:48:31.782Z,96712.81
2023-02-27T17:50:04.223Z,96711.78
2023-02-27T17:51:39.194Z,96709.41
2023-02-27T17:53:12.932Z,96712.81
2023-02-27T17:54:48.976Z,96715.72
2023-02-27T17:56:26.673Z,96712.28
2023-02-27T17:57:58.803Z,96711.25
2023-02-27T17:59:31.698Z,96716.50
2023-02-27T18:01:06.668Z,96713.88
2023-02-27T18:02:43.414Z,96722.78
2023-02-27T18:04:16.241Z,96720.69
2023-02-27T18:05:49.217Z,96724.09
2023-02-27T18:07:21.054Z,96726.97
2023-02-27T18:08:52.783Z,96723.31
2023-02-27T18:10:24.459Z,96717.53
2023-02-27T18:11:56.370Z,96725.41
2023-02-27T18:13:31.188Z,96727.50
2023-02-27T18:15:03.305Z,96722.53
2023-02-27T18:16:35.478Z,96727.22
2023-02-27T18:18:08.507Z,96731.97
2023-02-27T18:19:40.340Z,96732.22
2023-02-27T18:21:13.025Z,96731.44
2023-02-27T18:22:44.756Z,96737.47
2023-02-27T18:24:16.595Z,96730.91
2023-02-27T18:25:53.641Z,96729.09
2023-02-27T18:27:27.115Z,96740.31
2023-02-27T18:29:01.537Z,96736.66
2023-02-27T18:30:36.759Z,96741.13
2023-02-27T18:32:08.692Z,96745.31
2023-02-27T18:33:41.901Z,96739.00
2023-02-27T18:35:13.664Z,96727.47
2023-02-27T18:36:45.418Z,96731.44
2023-02-27T18:38:17.220Z,96737.72
2023-02-27T18:39:49.081Z,96745.28
2023-02-27T18:41:20.729Z,96746.84
2023-02-27T18:42:52.615Z,96751.03
2023-02-27T18:44:36.986Z,96750.56
2023-02-27T18:46:20.785Z,96747.66
2023-02-27T18:47:55.242Z,96752.09
2023-02-27T18:49:28.478Z,96756.06
2023-02-27T18:51:07.243Z,96743.75
2023-02-27T18:52:39.154Z,96754.75
2023-02-27T18:54:16.734Z,96748.19
2023-02-27T18:55:51.396Z,96755.22
2023-02-27T18:57:28.981Z,96752.34
2023-02-27T18:59:05.845Z,96758.13
2023-02-27T19:00:41.404Z,96743.44
2023-02-27T19:02:17.362Z,96750.78
2023-02-27T19:04:02.406Z,96757.31
2023-02-27T19:05:41.392Z,96746.84
2023-02-27T19:07:13.571Z,96748.69
2023-02-27T19:08:46.051Z,96746.59
2023-02-27T19:10:18.180Z,96751.03
2023-02-27T19:11:57.540Z,96753.16
2023-02-27T19:13:37.123Z,96759.94
2023-02-27T19:15:10.906Z,96743.44
2023-02-27T19:16:44.329Z,96754.19